Aviation Digital Data Service (ADDS)

Output produced by TAFs form (1401 UTC 28 August 2016)
found at http://www.aviationweather.gov/adds/tafs/
 
KBJC 281345Z 00000KT 30SM BKN100 18/05 A3021
KBJC 281130Z 2812/2912 35006KT P6SM BKN120 BKN200 
     FM281800 03008KT P6SM FEW090 BKN200 
     FM282200 10008KT P6SM FEW090 BKN140 
     PROB30 2822/2903 VRB15G30KT -TSRA BKN070CB 
     FM290300 26010KT P6SM SCT090 BKN140